Time;durP1;ratioP1;P1;durP2;ratioP2;P2;SDS_P1;SDS_P2;PMS_P1;PMS_P2;Temp;Humidity;BMP_temperature;BMP_pressure;BME280_temperature;BME280_humidity;BME280_pressure;Samples;Min_cycle;Max_cycle;Signal;HPM_P1;HPM_P2
2023/03/11 00:00:24;;;;;;;6.13;3.25;;;;;;;15.74;68.26;97806.13;5053226;28;20122;-84
2023/03/11 00:02:51;;;;;;;7.78;3.55;;;;;;;15.55;68.40;97784.34;5054277;28;20079;-85
2023/03/11 00:05:20;;;;;;;7.63;3.50;;;;;;;15.40;68.36;97755.75;5053114;28;20090;-84
2023/03/11 00:07:45;;;;;;;11.98;3.38;;;;;;;15.30;68.49;97763.66;5052668;28;20036;-84
2023/03/11 00:10:18;;;;;;;11.63;4.05;;;;;;;15.68;69.06;97802.63;5053891;28;20421;-84
2023/03/11 00:12:43;;;;;;;7.88;3.58;;;;;;;14.94;68.86;97688.88;5054027;28;20479;-85
2023/03/11 00:15:09;;;;;;;8.30;3.90;;;;;;;15.64;69.31;97804.19;5054116;28;20025;-85
2023/03/11 00:17:35;;;;;;;9.57;3.70;;;;;;;15.27;69.38;97758.84;5052467;28;20056;-85
2023/03/11 00:20:00;;;;;;;8.32;4.07;;;;;;;15.08;69.50;97721.19;5053897;28;20071;-84
2023/03/11 00:22:26;;;;;;;7.78;3.60;;;;;;;14.91;69.77;97708.00;5053662;28;20036;-84
2023/03/11 00:24:51;;;;;;;9.52;3.40;;;;;;;15.51;69.58;97788.56;5052132;28;20052;-84
2023/03/11 00:27:17;;;;;;;7.82;3.75;;;;;;;14.95;69.60;97702.97;5053701;28;20102;-83
2023/03/11 00:29:42;;;;;;;7.90;3.47;;;;;;;15.03;69.49;97707.03;5052304;28;20117;-84
2023/03/11 00:32:07;;;;;;;9.05;2.83;;;;;;;15.46;69.24;97775.22;5053599;28;20064;-84
2023/03/11 00:34:33;;;;;;;8.77;3.42;;;;;;;14.79;69.75;97666.66;5053672;28;20024;-84
2023/03/11 00:36:58;;;;;;;7.13;3.20;;;;;;;15.44;69.62;97762.19;5053393;28;20440;-84
2023/03/11 00:39:24;;;;;;;6.82;3.38;;;;;;;15.05;69.28;97696.97;5053471;28;20033;-85
2023/03/11 00:41:50;;;;;;;10.10;3.20;;;;;;;15.31;68.98;97736.00;5053527;28;20025;-85
2023/03/11 00:44:16;;;;;;;8.18;3.20;;;;;;;15.02;69.27;97687.63;5053429;28;20020;-85
2023/03/11 00:46:41;;;;;;;10.65;3.58;;;;;;;15.68;69.22;97799.16;5053087;28;20501;-84
2023/03/11 00:49:06;;;;;;;7.90;3.45;;;;;;;15.45;68.95;97763.00;5053117;28;20107;-85
2023/03/11 00:51:32;;;;;;;8.40;3.30;;;;;;;15.09;68.42;97695.41;5052580;28;20409;-84
2023/03/11 00:53:59;;;;;;;7.70;3.42;;;;;;;15.37;68.49;97742.19;5053101;28;20039;-84
2023/03/11 00:56:25;;;;;;;8.60;3.33;;;;;;;15.28;68.79;97731.19;5053042;28;20047;-86
2023/03/11 00:58:50;;;;;;;7.93;3.60;;;;;;;15.55;68.05;97760.41;5052069;28;20494;-84
2023/03/11 01:01:18;;;;;;;8.40;3.47;;;;;;;15.70;68.07;97784.53;5053151;28;20111;-85
2023/03/11 01:03:44;;;;;;;8.60;3.90;;;;;;;15.61;68.24;97754.13;5053074;28;20037;-85
2023/03/11 01:06:10;;;;;;;10.27;4.35;;;;;;;15.45;67.97;97733.72;5052852;28;20162;-84
2023/03/11 01:08:36;;;;;;;10.13;4.80;;;;;;;15.25;67.97;97715.75;5052845;28;20037;-85
2023/03/11 01:11:02;;;;;;;13.85;4.63;;;;;;;15.77;67.88;97779.81;5052657;28;20121;-84
2023/03/11 01:13:28;;;;;;;13.57;4.55;;;;;;;15.05;67.83;97673.03;5052744;28;20563;-84
2023/03/11 01:15:55;;;;;;;12.77;4.43;;;;;;;15.11;67.74;97672.03;5052986;28;20021;-84
2023/03/11 01:18:21;;;;;;;12.00;3.70;;;;;;;15.78;67.55;97769.97;5052568;28;20032;-84
2023/03/11 01:20:47;;;;;;;9.70;3.92;;;;;;;15.41;67.81;97712.16;5052483;28;20029;-84
2023/03/11 01:23:17;;;;;;;12.15;3.97;;;;;;;15.60;67.80;97727.75;5052732;28;20055;-85
2023/03/11 01:25:43;;;;;;;11.80;4.72;;;;;;;15.60;67.58;97735.75;5052771;28;20083;-85
2023/03/11 01:28:08;;;;;;;15.13;4.70;;;;;;;15.03;67.57;97643.25;5052656;28;20033;-84
2023/03/11 01:30:36;;;;;;;11.27;4.43;;;;;;;15.74;67.75;97736.94;5052910;28;20039;-84
2023/03/11 01:33:03;;;;;;;11.60;4.45;;;;;;;15.31;67.53;97650.94;5052834;28;20057;-85
2023/03/11 01:35:30;;;;;;;8.45;4.38;;;;;;;15.42;67.46;97665.91;5052372;28;20025;-84
2023/03/11 01:37:57;;;;;;;12.07;4.65;;;;;;;15.60;67.19;97693.19;5052550;28;20035;-84
2023/03/11 01:40:24;;;;;;;9.98;4.50;;;;;;;15.77;67.29;97702.66;5052380;28;20025;-84
2023/03/11 01:42:50;;;;;;;12.43;4.28;;;;;;;15.78;67.27;97712.22;5050920;28;20399;-85
2023/03/11 01:45:27;;;;;;;13.80;4.63;;;;;;;15.80;67.07;97704.78;5052066;28;20082;-84
2023/03/11 01:47:53;;;;;;;13.98;4.85;;;;;;;15.59;67.19;97700.34;5052009;28;20032;-84
2023/03/11 01:50:18;;;;;;;10.02;4.03;;;;;;;15.56;66.94;97644.97;5050678;28;20029;-84
2023/03/11 01:52:44;;;;;;;14.75;5.13;;;;;;;15.27;67.21;97599.31;5052046;28;20521;-84
2023/03/11 01:55:12;;;;;;;11.32;4.97;;;;;;;15.78;66.97;97674.97;5051987;28;20410;-84
2023/03/11 01:57:39;;;;;;;12.75;4.72;;;;;;;15.80;67.00;97677.38;5052010;28;20025;-85
2023/03/11 02:00:08;;;;;;;12.25;5.13;;;;;;;15.13;67.10;97569.72;5052115;28;20409;-85
2023/03/11 02:02:49;;;;;;;11.77;4.05;;;;;;;15.57;67.42;97638.59;5050781;28;20079;-85
2023/03/11 02:05:15;;;;;;;9.32;4.13;;;;;;;15.42;67.05;97611.91;5050293;28;20040;-85
2023/03/11 02:07:41;;;;;;;9.13;3.90;;;;;;;15.33;66.68;97605.47;5051961;28;20068;-85
2023/03/11 02:10:08;;;;;;;9.90;3.67;;;;;;;15.68;66.69;97674.91;5051611;28;20036;-85
2023/03/11 02:12:35;;;;;;;6.35;3.17;;;;;;;15.66;66.42;97676.22;5051663;28;20028;-85
2023/03/11 02:15:03;;;;;;;7.97;3.45;;;;;;;15.75;66.52;97683.47;5066974;28;20025;-86
2023/03/11 02:17:31;;;;;;;7.10;3.08;;;;;;;15.75;65.78;97698.63;5050335;28;20567;-85
2023/03/11 02:20:21;;;;;;;8.75;3.30;;;;;;;15.71;65.63;97676.25;5051674;28;20493;-85
2023/03/11 02:22:47;;;;;;;9.30;3.22;;;;;;;15.03;65.83;97582.94;5051265;28;20033;-85
2023/03/11 02:25:35;;;;;;;6.97;3.22;;;;;;;15.21;66.08;97600.34;5050016;28;20025;-85
2023/03/11 02:28:04;;;;;;;6.95;3.47;;;;;;;14.90;65.75;97556.78;5051527;28;20033;-85
2023/03/11 02:30:32;;;;;;;6.97;2.92;;;;;;;14.93;65.84;97566.91;5051716;28;20398;-84
2023/03/11 02:32:59;;;;;;;9.65;3.80;;;;;;;15.49;65.79;97655.03;5066938;28;20036;-85
2023/03/11 02:35:25;;;;;;;8.38;3.70;;;;;;;15.33;66.38;97618.75;5051395;28;20024;-86
2023/03/11 02:37:52;;;;;;;9.73;3.72;;;;;;;15.65;66.19;97669.31;5051446;28;20020;-83
2023/03/11 02:40:23;;;;;;;8.32;3.75;;;;;;;15.63;66.36;97671.41;5051260;28;20021;-84
2023/03/11 02:42:52;;;;;;;9.20;3.85;;;;;;;15.44;66.12;97653.16;5050160;28;20051;-84
2023/03/11 02:45:21;;;;;;;9.35;4.05;;;;;;;15.63;66.47;97672.22;5051292;28;20029;-84
2023/03/11 02:47:47;;;;;;;9.48;4.47;;;;;;;15.35;66.28;97628.09;5051290;28;20060;-84
2023/03/11 02:50:15;;;;;;;9.20;3.95;;;;;;;15.61;66.70;97679.66;5051247;28;20029;-84
2023/03/11 02:52:40;;;;;;;13.18;5.05;;;;;;;14.98;66.90;97584.75;5051291;28;20029;-84
2023/03/11 02:55:07;;;;;;;12.27;4.35;;;;;;;15.62;67.15;97669.81;5051206;28;20059;-84
2023/03/11 02:57:32;;;;;;;10.00;4.68;;;;;;;15.62;66.85;97665.28;5051033;28;20120;-84
2023/03/11 02:59:58;;;;;;;15.15;4.63;;;;;;;15.51;67.34;97652.94;5051415;28;20540;-84
2023/03/11 03:02:24;;;;;;;14.07;4.88;;;;;;;15.03;67.23;97590.91;5050010;28;20029;-84
2023/03/11 03:04:49;;;;;;;11.88;4.40;;;;;;;15.08;67.17;97576.84;5066462;28;20047;-84
2023/03/11 03:07:15;;;;;;;12.85;4.63;;;;;;;15.13;67.45;97574.22;5051154;28;20025;-84
2023/03/11 03:09:40;;;;;;;10.48;4.55;;;;;;;15.56;67.38;97637.00;5050981;28;20025;-85
2023/03/11 03:12:06;;;;;;;12.30;5.10;;;;;;;15.54;67.95;97636.47;5051293;28;20024;-84
2023/03/11 03:14:31;;;;;;;16.25;5.72;;;;;;;14.80;67.36;97535.41;5053124;28;20410;-84
2023/03/11 03:16:57;;;;;;;10.13;5.03;;;;;;;15.39;67.59;97626.50;5055017;28;20078;-84
2023/03/11 03:19:23;;;;;;;11.88;5.05;;;;;;;14.88;67.88;97551.72;5053841;28;20021;-84
2023/03/11 03:21:48;;;;;;;14.18;4.97;;;;;;;14.62;67.86;97525.97;5054924;28;20023;-84
2023/03/11 03:24:14;;;;;;;9.10;5.00;;;;;;;15.07;67.98;97607.94;5054696;28;20517;-84
2023/03/11 03:26:39;;;;;;;13.95;5.15;;;;;;;14.80;67.68;97572.63;5054770;28;20104;-84
2023/03/11 03:29:05;;;;;;;10.40;4.72;;;;;;;14.75;68.05;97568.06;5054677;28;20033;-84
2023/03/11 03:31:31;;;;;;;11.70;5.88;;;;;;;15.38;68.01;97670.13;5054685;28;20025;-84
2023/03/11 03:33:56;;;;;;;13.35;5.55;;;;;;;14.75;68.08;97613.22;5053412;28;20600;-84
2023/03/11 03:36:22;;;;;;;13.27;5.10;;;;;;;14.84;67.90;97598.44;5054472;28;20071;-84
2023/03/11 03:38:51;;;;;;;11.38;5.55;;;;;;;14.92;68.14;97615.78;5054713;28;20104;-84
2023/03/11 03:41:17;;;;;;;11.15;4.82;;;;;;;14.97;67.91;97610.53;5055014;28;20053;-84
2023/03/11 03:43:42;;;;;;;10.90;5.85;;;;;;;15.31;68.05;97663.41;5054447;28;20056;-84
2023/03/11 03:46:07;;;;;;;11.48;5.28;;;;;;;14.83;68.26;97582.75;5054338;28;20461;-84
2023/03/11 03:48:34;;;;;;;11.45;4.82;;;;;;;15.19;67.94;97643.13;5054278;28;20033;-84
2023/03/11 03:51:04;;;;;;;11.77;5.07;;;;;;;14.99;67.75;97610.25;5054318;28;20017;-84
2023/03/11 03:53:32;;;;;;;10.13;4.90;;;;;;;14.17;67.64;97479.38;5054042;28;20111;-84
2023/03/11 03:56:01;;;;;;;11.95;4.90;;;;;;;15.29;67.58;97644.25;5054104;28;20017;-84
2023/03/11 03:58:27;;;;;;;12.82;5.10;;;;;;;15.03;68.02;97595.41;5054311;28;20020;-84
2023/03/11 04:00:55;;;;;;;14.27;5.85;;;;;;;14.84;68.02;97571.06;5054333;28;20082;-84
2023/03/11 04:03:21;;;;;;;13.43;5.00;;;;;;;14.84;67.59;97574.50;5054075;28;20018;-84
2023/03/11 04:05:47;;;;;;;13.15;5.40;;;;;;;14.26;67.74;97479.72;5054687;28;20025;-84
2023/03/11 04:08:12;;;;;;;10.13;5.10;;;;;;;14.65;67.64;97567.97;5054136;28;20074;-84
2023/03/11 04:10:37;;;;;;;13.02;5.75;;;;;;;14.66;67.71;97526.28;5069414;28;20033;-84
2023/03/11 04:13:03;;;;;;;9.55;5.35;;;;;;;15.06;67.76;97602.88;5053945;28;20024;-84
2023/03/11 04:15:28;;;;;;;18.30;5.32;;;;;;;14.46;67.44;97493.19;5053871;28;20496;-84
2023/03/11 04:17:54;;;;;;;15.13;6.53;;;;;;;14.49;67.75;97491.88;5053855;28;20035;-84
2023/03/11 04:20:19;;;;;;;12.27;5.38;;;;;;;14.66;67.37;97518.31;5053940;28;20028;-84
2023/03/11 04:22:44;;;;;;;11.50;5.90;;;;;;;14.67;67.19;97539.31;5053570;28;20506;-84
2023/03/11 04:25:10;;;;;;;12.27;5.45;;;;;;;15.00;67.23;97572.81;5053133;28;20449;-84
2023/03/11 04:27:37;;;;;;;12.73;6.07;;;;;;;15.08;67.30;97569.69;5053427;28;20020;-84
2023/03/11 04:30:04;;;;;;;13.23;5.88;;;;;;;15.18;67.38;97583.03;5053473;28;20048;-84
2023/03/11 04:32:29;;;;;;;11.48;5.65;;;;;;;15.11;67.20;97557.72;5053778;28;20048;-84
2023/03/11 04:34:55;;;;;;;12.75;6.35;;;;;;;15.19;67.05;97567.88;5053837;28;20119;-84
2023/03/11 04:37:20;;;;;;;12.13;5.05;;;;;;;14.79;67.15;97529.31;5053349;28;20095;-84
2023/03/11 04:39:45;;;;;;;10.23;5.35;;;;;;;14.67;66.82;97490.69;5053174;28;20016;-84
2023/03/11 04:42:12;;;;;;;11.15;5.05;;;;;;;14.58;66.99;97485.84;5053284;28;20017;-84
2023/03/11 04:44:38;;;;;;;9.55;4.65;;;;;;;15.31;66.48;97588.97;5053407;28;20074;-84
2023/03/11 04:47:03;;;;;;;12.52;5.40;;;;;;;15.05;66.58;97548.94;5053204;28;20032;-83
2023/03/11 04:49:29;;;;;;;12.48;5.68;;;;;;;14.62;66.51;97486.94;5053134;28;20024;-84
2023/03/11 04:51:54;;;;;;;11.98;4.85;;;;;;;15.32;66.75;97596.69;5053208;28;20056;-84
2023/03/11 04:54:19;;;;;;;12.18;4.72;;;;;;;14.87;66.36;97520.09;5053179;28;20024;-83
2023/03/11 04:56:45;;;;;;;10.15;4.13;;;;;;;14.99;66.81;97547.28;5053218;28;20024;-83
2023/03/11 04:59:10;;;;;;;10.85;5.22;;;;;;;15.25;66.10;97575.63;5052859;28;20068;-84
2023/03/11 05:01:36;;;;;;;11.73;4.63;;;;;;;15.35;66.53;97592.72;5051787;28;20021;-84
2023/03/11 05:04:01;;;;;;;13.32;5.53;;;;;;;15.38;66.63;97594.88;5053137;28;20024;-84
2023/03/11 05:06:27;;;;;;;11.13;4.90;;;;;;;15.09;66.50;97544.69;5052847;28;20060;-84
2023/03/11 05:08:52;;;;;;;9.55;4.85;;;;;;;14.93;66.22;97525.19;5052902;28;20079;-84
2023/03/11 05:11:17;;;;;;;10.77;4.13;;;;;;;15.07;66.42;97564.63;5052734;28;20517;-84
2023/03/11 05:13:43;;;;;;;9.80;4.45;;;;;;;14.94;66.46;97534.75;5052800;28;20077;-83
2023/03/11 05:16:08;;;;;;;9.73;4.47;;;;;;;15.26;65.78;97598.50;5052620;28;20049;-84
2023/03/11 05:18:34;;;;;;;8.38;4.43;;;;;;;14.87;65.60;97559.94;5052519;28;20013;-84
2023/03/11 05:20:59;;;;;;;8.05;4.18;;;;;;;15.00;65.47;97593.25;5052505;28;20476;-84
2023/03/11 05:23:24;;;;;;;4.25;2.25;;;;;;;14.87;65.17;97605.13;5050959;28;20049;-84
2023/03/11 05:25:50;;;;;;;6.65;3.53;;;;;;;14.90;65.18;97634.66;5052320;28;20083;-84
2023/03/11 05:28:15;;;;;;;3.78;2.75;;;;;;;14.71;65.54;97649.31;5052431;28;20052;-84
2023/03/11 05:30:41;;;;;;;4.45;3.17;;;;;;;14.75;65.64;97673.53;5052181;28;20025;-84
2023/03/11 05:33:06;;;;;;;5.47;3.20;;;;;;;13.92;65.81;97535.59;5052582;28;20024;-84
2023/03/11 05:35:31;;;;;;;4.70;3.65;;;;;;;14.69;65.50;97653.28;5052310;28;20109;-84
2023/03/11 05:37:57;;;;;;;4.30;3.10;;;;;;;14.20;65.54;97618.72;5052342;28;20020;-84
2023/03/11 05:40:22;;;;;;;5.82;4.35;;;;;;;14.63;65.66;97703.69;5052548;28;20409;-84
2023/03/11 05:42:48;;;;;;;5.30;4.18;;;;;;;14.67;65.79;97701.34;5052295;28;20059;-84
2023/03/11 05:45:13;;;;;;;7.57;5.93;;;;;;;14.72;65.30;97724.50;5052248;28;20025;-84
2023/03/11 05:47:41;;;;;;;7.40;5.63;;;;;;;14.72;65.56;97711.22;5052150;28;20028;-84
2023/03/11 05:50:07;;;;;;;8.25;6.15;;;;;;;14.70;65.17;97708.81;5051183;28;20048;-84
2023/03/11 05:52:33;;;;;;;9.02;6.63;;;;;;;14.71;64.94;97701.63;5050840;28;20025;-84
2023/03/11 05:54:58;;;;;;;10.20;6.50;;;;;;;14.68;65.23;97710.91;5052002;28;20028;-84
2023/03/11 05:57:23;;;;;;;7.40;5.22;;;;;;;13.85;65.09;97587.25;5050751;28;20021;-83
2023/03/11 05:59:49;;;;;;;8.20;4.88;;;;;;;14.48;65.15;97654.91;5051920;28;20029;-83
2023/03/11 06:02:14;;;;;;;6.43;4.80;;;;;;;14.32;65.81;97622.06;5050611;28;20112;-83
2023/03/11 06:04:40;;;;;;;7.53;6.22;;;;;;;14.09;65.42;97593.91;5051817;28;20026;-84
2023/03/11 06:07:05;;;;;;;8.00;5.25;;;;;;;14.43;65.76;97629.09;5051878;28;20021;-83
2023/03/11 06:09:31;;;;;;;7.43;4.70;;;;;;;14.46;66.31;97633.13;5051676;28;20082;-84
2023/03/11 06:11:56;;;;;;;7.32;4.72;;;;;;;14.65;66.38;97649.50;5051623;28;20412;-84
2023/03/11 06:14:21;;;;;;;6.65;4.40;;;;;;;14.13;66.31;97567.69;5051519;28;20021;-84
2023/03/11 06:16:47;;;;;;;6.72;4.22;;;;;;;14.30;66.09;97595.75;5051647;28;20078;-84
2023/03/11 06:19:12;;;;;;;7.95;4.82;;;;;;;13.80;66.01;97520.88;5050764;28;20086;-83
2023/03/11 06:21:38;;;;;;;8.77;6.53;;;;;;;14.10;65.74;97558.34;5051696;28;20025;-84
2023/03/11 06:24:04;;;;;;;7.30;5.85;;;;;;;14.21;65.56;97575.22;5051522;28;20491;-85
2023/03/11 06:26:29;;;;;;;8.82;6.38;;;;;;;14.81;64.98;97636.13;5051605;28;20028;-84
2023/03/11 06:28:55;;;;;;;7.05;5.38;;;;;;;14.49;65.12;97584.81;5050292;28;20025;-85
2023/03/11 06:31:25;;;;;;;7.57;6.22;;;;;;;14.89;64.33;97629.59;5051574;28;20025;-84
2023/03/11 06:33:51;;;;;;;9.95;7.20;;;;;;;14.92;64.35;97623.75;5050179;28;20025;-84
2023/03/11 06:36:19;;;;;;;11.55;7.38;;;;;;;14.99;64.79;97620.91;5051534;28;20028;-84
2023/03/11 06:38:48;;;;;;;8.95;6.22;;;;;;;15.04;64.29;97623.59;5051432;28;20036;-84
2023/03/11 06:41:14;;;;;;;9.70;5.90;;;;;;;15.07;64.26;97628.41;5051489;28;20078;-84
2023/03/11 06:43:40;;;;;;;9.15;6.00;;;;;;;14.43;63.90;97524.75;5051423;28;20095;-84
2023/03/11 06:46:14;;;;;;;9.85;6.60;;;;;;;14.58;63.76;97552.25;5051163;28;20474;-84
2023/03/11 06:48:39;;;;;;;7.15;6.18;;;;;;;14.61;64.32;97580.16;5050492;28;20103;-84
2023/03/11 06:51:05;;;;;;;6.68;5.22;;;;;;;14.61;64.47;97578.31;5066412;28;20508;-84
2023/03/11 06:53:31;;;;;;;8.82;5.90;;;;;;;14.87;64.92;97615.75;5051566;28;20613;-84
2023/03/11 06:56:08;;;;;;;5.28;4.00;;;;;;;14.44;64.87;97547.59;5049960;28;20063;-84
2023/03/11 06:58:36;;;;;;;6.10;5.50;;;;;;;14.86;65.17;97611.47;5051162;28;20052;-84
2023/03/11 07:01:11;;;;;;;6.97;5.95;;;;;;;14.48;65.22;97528.25;5049738;28;20100;-84
2023/03/11 07:03:36;;;;;;;5.70;4.32;;;;;;;14.84;65.18;97565.75;5051151;28;20099;-84
2023/03/11 07:06:02;;;;;;;6.80;5.75;;;;;;;14.60;64.77;97512.97;5050946;28;20025;-84
2023/03/11 07:08:29;;;;;;;8.32;5.47;;;;;;;15.18;64.66;97591.00;5050955;28;20013;-84
2023/03/11 07:11:03;;;;;;;6.40;5.70;;;;;;;14.75;64.62;97522.09;5050969;28;20025;-83
2023/03/11 07:13:29;;;;;;;5.20;4.68;;;;;;;14.78;64.15;97514.41;5049722;28;20066;-84
2023/03/11 07:16:01;;;;;;;7.70;5.75;;;;;;;15.43;64.50;97597.56;5051366;28;20154;-83
2023/03/11 07:18:27;;;;;;;5.47;4.72;;;;;;;15.31;63.70;97552.53;5051605;28;20025;-84
2023/03/11 07:20:52;;;;;;;5.68;4.00;;;;;;;15.22;63.53;97524.84;5050166;28;20402;-84
2023/03/11 07:23:18;;;;;;;3.90;2.83;;;;;;;14.86;62.91;97452.03;5051217;28;20049;-84
2023/03/11 07:25:47;;;;;;;4.55;3.05;;;;;;;15.37;62.47;97521.47;5049502;28;20027;-83
2023/03/11 07:28:13;;;;;;;5.50;3.40;;;;;;;15.99;61.57;97606.69;5051117;28;20032;-85
2023/03/11 07:30:40;;;;;;;3.67;3.13;;;;;;;15.88;61.07;97583.75;5050805;28;20461;-85
2023/03/11 07:33:05;;;;;;;3.67;2.60;;;;;;;15.94;60.13;97585.38;5050758;28;20108;-84
2023/03/11 07:35:31;;;;;;;6.82;3.95;;;;;;;16.12;59.81;97630.16;5049484;28;20492;-84
2023/03/11 07:37:56;;;;;;;4.07;2.55;;;;;;;15.54;58.70;97541.50;5050773;28;20079;-84
2023/03/11 07:40:22;;;;;;;3.58;2.65;;;;;;;15.66;58.60;97553.84;5049560;28;20032;-84
2023/03/11 07:42:47;;;;;;;5.10;3.33;;;;;;;16.16;58.13;97633.91;5050780;28;20555;-83
2023/03/11 07:45:13;;;;;;;4.20;2.83;;;;;;;16.20;57.50;97637.66;5066147;28;20032;-84
2023/03/11 07:47:38;;;;;;;2.60;2.35;;;;;;;15.86;57.35;97592.00;5049417;28;20033;-84
2023/03/11 07:50:04;;;;;;;2.25;1.98;;;;;;;16.25;57.10;97630.75;5049433;28;20094;-84
2023/03/11 07:52:30;;;;;;;3.22;2.03;;;;;;;14.55;56.22;97358.91;5050611;28;20021;-85
2023/03/11 07:54:56;;;;;;;4.25;3.30;;;;;;;16.08;56.49;97596.34;5050607;28;20067;-84
2023/03/11 07:57:21;;;;;;;2.95;2.65;;;;;;;15.91;56.44;97553.16;5050628;28;20036;-84
2023/03/11 07:59:47;;;;;;;4.28;3.65;;;;;;;16.13;56.63;97604.34;5050386;28;20013;-84
2023/03/11 08:02:12;;;;;;;3.83;3.13;;;;;;;16.25;56.39;97591.59;5053390;28;20079;-84
2023/03/11 08:04:37;;;;;;;4.07;3.00;;;;;;;16.34;55.74;97606.00;5052823;28;20029;-84
2023/03/11 08:07:03;;;;;;;4.63;3.67;;;;;;;16.02;55.25;97557.44;5053895;28;20073;-84
2023/03/11 08:09:28;;;;;;;3.17;2.88;;;;;;;16.20;55.05;97571.09;5053797;28;20070;-84
2023/03/11 08:11:54;;;;;;;3.60;3.00;;;;;;;16.42;55.10;97605.53;5053895;28;20053;-84
2023/03/11 08:14:19;;;;;;;10.68;8.93;;;;;;;16.29;54.72;97583.88;5053778;28;20031;-84
2023/03/11 08:16:44;;;;;;;4.50;4.10;;;;;;;16.04;54.56;97542.81;5053861;28;20032;-84
2023/03/11 08:19:12;;;;;;;4.40;3.03;;;;;;;16.34;54.38;97594.56;5053854;28;20119;-83
2023/03/11 08:21:37;;;;;;;2.40;1.98;;;;;;;16.08;54.11;97548.41;5053891;28;20025;-84
2023/03/11 08:24:03;;;;;;;3.88;3.22;;;;;;;16.69;54.31;97637.31;5053248;28;20586;-83
2023/03/11 08:26:29;;;;;;;4.13;2.58;;;;;;;16.79;54.07;97641.88;5053476;28;20025;-83
2023/03/11 08:28:56;;;;;;;4.97;4.07;;;;;;;16.76;54.05;97626.41;5053549;28;20025;-83
2023/03/11 08:31:24;;;;;;;4.72;3.72;;;;;;;16.37;54.03;97554.09;5053777;28;20501;-84
2023/03/11 08:33:52;;;;;;;3.08;2.20;;;;;;;16.94;53.48;97623.22;5053693;28;20029;-83
2023/03/11 08:36:19;;;;;;;4.47;2.97;;;;;;;16.98;53.60;97629.63;5053620;28;20039;-84
2023/03/11 08:38:45;;;;;;;2.67;2.17;;;;;;;16.99;53.48;97630.41;5053460;28;20051;-85
2023/03/11 08:41:10;;;;;;;3.97;2.30;;;;;;;16.90;53.18;97606.16;5052041;28;20498;-84
2023/03/11 08:43:36;;;;;;;3.65;1.90;;;;;;;16.92;52.86;97605.88;5053273;28;20024;-84
2023/03/11 08:46:02;;;;;;;3.35;2.55;;;;;;;16.99;53.05;97615.22;5053281;28;20405;-84
2023/03/11 08:48:28;;;;;;;2.28;1.88;;;;;;;17.09;52.85;97619.75;5052003;28;20524;-84
2023/03/11 08:50:54;;;;;;;6.32;3.90;;;;;;;16.66;52.63;97538.44;5053208;28;20509;-84
2023/03/11 08:53:21;;;;;;;5.75;4.22;;;;;;;16.52;52.37;97509.63;5053021;28;20025;-85
2023/03/11 08:55:46;;;;;;;4.15;2.60;;;;;;;17.26;51.82;97611.50;5051779;28;20028;-84
2023/03/11 08:58:11;;;;;;;3.25;2.00;;;;;;;17.29;50.95;97609.09;5053015;28;20506;-84
2023/03/11 09:00:37;;;;;;;3.85;2.30;;;;;;;16.58;50.08;97485.66;5052999;28;20017;-83
2023/03/11 09:03:02;;;;;;;2.33;1.55;;;;;;;17.04;49.67;97532.56;5053011;28;20021;-84
2023/03/11 09:05:28;;;;;;;2.90;2.15;;;;;;;17.37;49.13;97567.75;5052984;28;20020;-83
2023/03/11 09:07:53;;;;;;;2.47;2.00;;;;;;;17.39;48.82;97565.63;5052877;28;20666;-84
2023/03/11 09:10:18;;;;;;;2.53;1.65;;;;;;;17.15;47.88;97534.19;5052813;28;20062;-83
2023/03/11 09:12:44;;;;;;;3.67;2.20;;;;;;;17.07;47.94;97524.03;5052288;28;20490;-82
2023/03/11 09:15:10;;;;;;;3.58;2.22;;;;;;;17.29;47.92;97544.28;5052885;28;20028;-84
2023/03/11 09:17:35;;;;;;;3.25;2.00;;;;;;;17.10;47.54;97520.06;5052815;28;20072;-84
2023/03/11 09:20:01;;;;;;;2.50;1.65;;;;;;;15.93;46.91;97349.56;5051422;28;20421;-84
2023/03/11 09:22:26;;;;;;;2.08;1.77;;;;;;;16.84;47.07;97476.63;5052770;28;20021;-84
2023/03/11 09:24:52;;;;;;;4.05;2.60;;;;;;;16.62;46.88;97423.59;5052471;28;20433;-84
2023/03/11 09:27:17;;;;;;;2.80;1.77;;;;;;;17.25;46.51;97519.22;5051661;28;20478;-85
2023/03/11 09:29:43;;;;;;;5.43;2.25;;;;;;;16.75;46.39;97449.72;5052458;28;20044;-84
2023/03/11 09:32:12;;;;;;;2.50;1.70;;;;;;;17.42;46.34;97538.41;5052587;28;20025;-84
2023/03/11 09:34:37;;;;;;;3.85;1.67;;;;;;;17.04;45.97;97481.91;5052412;28;20024;-83
2023/03/11 09:37:02;;;;;;;3.53;1.77;;;;;;;17.36;45.97;97534.13;5051213;28;20017;-84
2023/03/11 09:39:28;;;;;;;1.80;1.70;;;;;;;17.57;45.94;97548.22;5052169;28;20062;-83
2023/03/11 09:41:55;;;;;;;2.50;1.90;;;;;;;17.70;45.63;97540.47;5052387;28;20028;-84
2023/03/11 09:44:36;;;;;;;3.17;2.50;;;;;;;17.77;44.46;97551.66;5052025;28;20108;-83
2023/03/11 09:47:30;;;;;;;1.98;1.30;;;;;;;17.73;44.93;97542.59;5051934;28;20460;-84
2023/03/11 09:50:21;;;;;;;2.88;1.70;;;;;;;17.75;44.73;97548.47;5042917;28;20386;-84
2023/03/11 09:53:05;;;;;;;1.17;1.08;;;;;;;17.91;44.84;97543.09;5051837;28;20031;-83
2023/03/11 09:55:39;;;;;;;2.20;1.00;;;;;;;18.12;44.14;97536.56;5066436;28;20045;-85
2023/03/11 09:58:12;;;;;;;3.30;1.20;;;;;;;18.19;43.22;97521.03;5071731;28;20063;-84
2023/03/11 10:00:38;;;;;;;3.55;1.10;;;;;;;17.87;43.25;97476.09;5071568;28;20485;-83
2023/03/11 10:03:12;;;;;;;1.60;1.50;;;;;;;17.66;42.44;97448.69;5071655;28;20082;-84
2023/03/11 10:05:38;;;;;;;0.85;0.80;;;;;;;18.17;42.63;97504.50;5071485;28;20033;-84
2023/03/11 10:08:32;;;;;;;1.23;0.70;;;;;;;18.39;42.33;97526.25;5070276;28;20024;-83
2023/03/11 10:11:35;;;;;;;1.25;1.08;;;;;;;18.73;40.90;97517.50;5058496;28;20107;-83
2023/03/11 10:14:44;;;;;;;1.27;1.00;;;;;;;18.75;40.54;97522.56;5070372;28;20024;-84
2023/03/11 10:17:21;;;;;;;1.88;1.10;;;;;;;18.58;41.85;97515.72;5070344;28;20083;-84
2023/03/11 10:20:11;;;;;;;2.05;1.20;;;;;;;18.66;41.78;97525.06;5071703;28;20077;-83
2023/03/11 10:22:48;;;;;;;3.85;1.20;;;;;;;18.84;40.37;97513.66;5061396;28;20033;-83
2023/03/11 10:25:19;;;;;;;2.88;1.00;;;;;;;18.99;40.78;97524.22;5070858;28;20043;-83
2023/03/11 10:27:48;;;;;;;3.72;1.50;;;;;;;19.20;40.38;97514.13;5071323;28;20051;-84
2023/03/11 10:30:36;;;;;;;1.30;1.00;;;;;;;19.25;39.31;97481.16;5071599;28;20028;-83
2023/03/11 10:33:30;;;;;;;2.55;1.15;;;;;;;19.26;39.12;97467.50;5071484;28;20107;-82
2023/03/11 10:36:02;;;;;;;2.33;1.05;;;;;;;19.63;38.98;97477.56;5071025;28;20016;-81
2023/03/11 10:38:36;;;;;;;;;;;;;;;19.92;38.37;97519.53;5071535;28;20082;-81
2023/03/11 10:41:31;;;;;;;3.35;1.50;;;;;;;19.95;37.89;97519.75;5071188;28;19908;-83
2023/03/11 10:44:05;;;;;;;1.95;1.65;;;;;;;19.93;37.72;97491.66;5060825;28;20067;-82
2023/03/11 10:46:30;;;;;;;2.28;1.33;;;;;;;20.02;38.56;97457.78;5071181;28;20022;-84
2023/03/11 10:48:56;;;;;;;4.03;3.10;;;;;;;20.27;37.86;97483.44;5071249;28;20667;-81
2023/03/11 10:51:30;;;;;;;2.80;2.20;;;;;;;20.60;36.75;97500.38;5071167;28;20039;-83
2023/03/11 10:53:58;;;;;;;5.72;2.22;;;;;;;20.86;37.17;97512.31;5070932;28;20565;-83
2023/03/11 10:56:31;;;;;;;1.73;1.40;;;;;;;21.00;35.28;97493.56;5071039;28;20082;-82
2023/03/11 10:58:56;;;;;;;4.43;1.30;;;;;;;20.60;36.48;97444.84;5070856;28;20024;-83
2023/03/11 11:01:23;;;;;;;1.88;1.42;;;;;;;20.98;35.80;97503.00;5071055;28;20512;-84
2023/03/11 11:03:54;;;;;;;2.28;1.20;;;;;;;20.34;35.50;97429.47;5069954;28;20417;-82
2023/03/11 11:06:25;;;;;;;2.37;1.20;;;;;;;20.83;35.56;97504.84;5071205;28;20020;-81
2023/03/11 11:09:15;;;;;;;2.20;1.27;;;;;;;20.90;34.72;97507.16;5071122;28;20029;-82
2023/03/11 11:11:41;;;;;;;4.05;1.20;;;;;;;21.07;35.71;97509.28;5071169;28;20497;-83
2023/03/11 11:14:08;;;;;;;2.58;1.40;;;;;;;20.52;35.24;97377.72;5071123;28;20476;-82
2023/03/11 11:16:34;;;;;;;2.42;1.65;;;;;;;20.94;35.48;97451.81;5070927;28;20023;-82
2023/03/11 11:19:08;;;;;;;3.97;2.22;;;;;;;20.82;34.77;97441.56;5071060;28;20501;-82
2023/03/11 11:21:47;;;;;;;2.20;1.55;;;;;;;20.41;34.46;97435.28;5070806;28;20416;-82
2023/03/11 11:24:26;;;;;;;1.20;1.05;;;;;;;20.50;34.96;97493.28;5070600;28;20501;-83
2023/03/11 11:27:10;;;;;;;2.03;1.13;;;;;;;20.21;35.15;97490.75;5070759;28;20028;-83
2023/03/11 11:29:36;;;;;;;2.30;1.50;;;;;;;19.78;36.63;97468.53;5070697;28;20436;-84
2023/03/11 11:32:13;;;;;;;3.95;1.60;;;;;;;19.95;36.71;97513.59;5069367;28;20024;-83
2023/03/11 11:34:39;;;;;;;1.20;1.10;;;;;;;19.82;37.25;97472.25;5069747;28;20116;-83